sensor_id;sensor_type;location;lat;lon;timestamp;P1;durP1;ratioP1;P2;durP2;ratioP2
19998;SDS011;10160;50.926;4.374;2022-10-16T00:00:53;6.17;;;1.00;;
19998;SDS011;10160;50.926;4.374;2022-10-16T00:03:19;2.63;;;0.80;;
19998;SDS011;10160;50.926;4.374;2022-10-16T00:05:44;4.20;;;1.30;;
19998;SDS011;10160;50.926;4.374;2022-10-16T00:08:10;4.23;;;1.20;;
19998;SDS011;10160;50.926;4.374;2022-10-16T00:10:37;1.90;;;0.80;;
19998;SDS011;10160;50.926;4.374;2022-10-16T00:13:03;3.33;;;1.10;;
19998;SDS011;10160;50.926;4.374;2022-10-16T00:15:30;5.10;;;1.10;;
19998;SDS011;10160;50.926;4.374;2022-10-16T00:17:58;2.50;;;1.00;;
19998;SDS011;10160;50.926;4.374;2022-10-16T00:20:23;2.83;;;0.90;;
19998;SDS011;10160;50.926;4.374;2022-10-16T00:22:49;4.70;;;1.10;;
19998;SDS011;10160;50.926;4.374;2022-10-16T00:25:15;3.43;;;1.30;;
19998;SDS011;10160;50.926;4.374;2022-10-16T00:27:40;3.67;;;0.90;;
19998;SDS011;10160;50.926;4.374;2022-10-16T00:30:06;4.10;;;1.00;;
19998;SDS011;10160;50.926;4.374;2022-10-16T00:32:33;4.57;;;1.20;;
19998;SDS011;10160;50.926;4.374;2022-10-16T00:34:59;3.37;;;0.97;;
19998;SDS011;10160;50.926;4.374;2022-10-16T00:37:24;2.43;;;1.00;;
19998;SDS011;10160;50.926;4.374;2022-10-16T00:39:50;2.83;;;0.90;;
19998;SDS011;10160;50.926;4.374;2022-10-16T00:42:16;4.93;;;1.10;;
19998;SDS011;10160;50.926;4.374;2022-10-16T00:44:53;5.17;;;0.93;;
19998;SDS011;10160;50.926;4.374;2022-10-16T00:47:43;2.80;;;1.17;;
19998;SDS011;10160;50.926;4.374;2022-10-16T00:50:29;3.33;;;1.20;;
19998;SDS011;10160;50.926;4.374;2022-10-16T00:52:57;5.33;;;1.10;;
19998;SDS011;10160;50.926;4.374;2022-10-16T00:55:25;2.00;;;1.03;;
19998;SDS011;10160;50.926;4.374;2022-10-16T00:57:53;2.90;;;0.97;;
19998;SDS011;10160;50.926;4.374;2022-10-16T01:00:23;3.63;;;1.13;;
19998;SDS011;10160;50.926;4.374;2022-10-16T01:05:23;5.50;;;1.23;;
19998;SDS011;10160;50.926;4.374;2022-10-16T01:10:49;2.83;;;1.10;;
19998;SDS011;10160;50.926;4.374;2022-10-16T01:13:24;3.30;;;1.30;;
19998;SDS011;10160;50.926;4.374;2022-10-16T01:15:56;8.40;;;1.53;;
19998;SDS011;10160;50.926;4.374;2022-10-16T01:18:34;3.40;;;1.13;;
19998;SDS011;10160;50.926;4.374;2022-10-16T01:21:16;4.20;;;1.47;;
19998;SDS011;10160;50.926;4.374;2022-10-16T01:29:26;6.70;;;1.50;;
19998;SDS011;10160;50.926;4.374;2022-10-16T01:31:59;4.10;;;1.30;;
19998;SDS011;10160;50.926;4.374;2022-10-16T01:34:30;3.20;;;1.30;;
19998;SDS011;10160;50.926;4.374;2022-10-16T01:37:09;2.50;;;1.10;;
19998;SDS011;10160;50.926;4.374;2022-10-16T01:39:40;4.67;;;1.70;;
19998;SDS011;10160;50.926;4.374;2022-10-16T01:42:24;3.00;;;1.53;;
19998;SDS011;10160;50.926;4.374;2022-10-16T01:44:59;2.83;;;1.23;;
19998;SDS011;10160;50.926;4.374;2022-10-16T01:47:26;3.63;;;1.50;;
19998;SDS011;10160;50.926;4.374;2022-10-16T01:49:55;3.40;;;1.57;;
19998;SDS011;10160;50.926;4.374;2022-10-16T01:52:23;4.63;;;1.37;;
19998;SDS011;10160;50.926;4.374;2022-10-16T01:54:53;2.70;;;1.20;;
19998;SDS011;10160;50.926;4.374;2022-10-16T01:57:21;3.10;;;1.37;;
19998;SDS011;10160;50.926;4.374;2022-10-16T01:59:51;3.43;;;1.40;;
19998;SDS011;10160;50.926;4.374;2022-10-16T02:02:20;5.50;;;1.97;;
19998;SDS011;10160;50.926;4.374;2022-10-16T02:04:55;2.83;;;1.30;;
19998;SDS011;10160;50.926;4.374;2022-10-16T02:07:33;3.60;;;1.40;;
19998;SDS011;10160;50.926;4.374;2022-10-16T02:09:59;4.03;;;1.40;;
19998;SDS011;10160;50.926;4.374;2022-10-16T02:12:26;3.83;;;1.53;;
19998;SDS011;10160;50.926;4.374;2022-10-16T02:14:55;3.90;;;1.53;;
19998;SDS011;10160;50.926;4.374;2022-10-16T02:17:21;4.67;;;1.50;;
19998;SDS011;10160;50.926;4.374;2022-10-16T02:19:48;4.93;;;1.40;;
19998;SDS011;10160;50.926;4.374;2022-10-16T02:22:39;4.57;;;1.53;;
19998;SDS011;10160;50.926;4.374;2022-10-16T02:25:17;4.67;;;1.53;;
19998;SDS011;10160;50.926;4.374;2022-10-16T02:27:55;3.67;;;1.47;;
19998;SDS011;10160;50.926;4.374;2022-10-16T02:30:33;6.30;;;1.73;;
19998;SDS011;10160;50.926;4.374;2022-10-16T02:33:04;4.33;;;1.50;;
19998;SDS011;10160;50.926;4.374;2022-10-16T02:35:34;3.37;;;1.37;;
19998;SDS011;10160;50.926;4.374;2022-10-16T02:38:01;3.53;;;1.30;;
19998;SDS011;10160;50.926;4.374;2022-10-16T02:40:27;5.03;;;1.30;;
19998;SDS011;10160;50.926;4.374;2022-10-16T02:42:53;4.70;;;1.73;;
19998;SDS011;10160;50.926;4.374;2022-10-16T02:45:20;3.57;;;1.47;;
19998;SDS011;10160;50.926;4.374;2022-10-16T02:47:46;5.60;;;1.60;;
19998;SDS011;10160;50.926;4.374;2022-10-16T02:50:12;4.53;;;1.40;;
19998;SDS011;10160;50.926;4.374;2022-10-16T02:52:37;5.47;;;2.10;;
19998;SDS011;10160;50.926;4.374;2022-10-16T02:55:03;7.40;;;2.47;;
19998;SDS011;10160;50.926;4.374;2022-10-16T02:57:29;6.63;;;1.80;;
19998;SDS011;10160;50.926;4.374;2022-10-16T02:59:56;5.77;;;1.60;;
19998;SDS011;10160;50.926;4.374;2022-10-16T03:02:21;3.27;;;1.50;;
19998;SDS011;10160;50.926;4.374;2022-10-16T03:04:47;3.33;;;1.40;;
19998;SDS011;10160;50.926;4.374;2022-10-16T03:07:13;4.87;;;1.77;;
19998;SDS011;10160;50.926;4.374;2022-10-16T03:09:38;6.00;;;1.80;;
19998;SDS011;10160;50.926;4.374;2022-10-16T03:12:04;6.20;;;1.93;;
19998;SDS011;10160;50.926;4.374;2022-10-16T03:14:29;2.70;;;1.37;;
19998;SDS011;10160;50.926;4.374;2022-10-16T03:16:55;5.23;;;1.40;;
19998;SDS011;10160;50.926;4.374;2022-10-16T03:19:21;3.87;;;1.60;;
19998;SDS011;10160;50.926;4.374;2022-10-16T03:21:46;4.40;;;1.47;;
19998;SDS011;10160;50.926;4.374;2022-10-16T03:24:12;4.50;;;1.80;;
19998;SDS011;10160;50.926;4.374;2022-10-16T03:26:38;6.83;;;1.60;;
19998;SDS011;10160;50.926;4.374;2022-10-16T03:29:03;3.70;;;1.60;;
19998;SDS011;10160;50.926;4.374;2022-10-16T03:31:30;5.33;;;1.67;;
19998;SDS011;10160;50.926;4.374;2022-10-16T03:33:56;3.87;;;1.47;;
19998;SDS011;10160;50.926;4.374;2022-10-16T03:36:21;7.07;;;2.00;;
19998;SDS011;10160;50.926;4.374;2022-10-16T03:38:47;5.53;;;1.60;;
19998;SDS011;10160;50.926;4.374;2022-10-16T03:41:12;5.37;;;1.80;;
19998;SDS011;10160;50.926;4.374;2022-10-16T03:43:38;5.30;;;2.00;;
19998;SDS011;10160;50.926;4.374;2022-10-16T03:46:04;5.27;;;2.00;;
19998;SDS011;10160;50.926;4.374;2022-10-16T03:48:30;4.00;;;1.50;;
19998;SDS011;10160;50.926;4.374;2022-10-16T03:50:57;5.23;;;1.90;;
19998;SDS011;10160;50.926;4.374;2022-10-16T03:53:23;7.43;;;1.73;;
19998;SDS011;10160;50.926;4.374;2022-10-16T03:55:48;5.37;;;2.00;;
19998;SDS011;10160;50.926;4.374;2022-10-16T03:58:14;5.87;;;1.83;;
19998;SDS011;10160;50.926;4.374;2022-10-16T04:00:40;6.07;;;2.20;;
19998;SDS011;10160;50.926;4.374;2022-10-16T04:03:07;6.23;;;1.83;;
19998;SDS011;10160;50.926;4.374;2022-10-16T04:05:33;5.87;;;1.90;;
19998;SDS011;10160;50.926;4.374;2022-10-16T04:07:59;7.50;;;1.70;;
19998;SDS011;10160;50.926;4.374;2022-10-16T04:10:24;6.27;;;1.80;;
19998;SDS011;10160;50.926;4.374;2022-10-16T04:12:50;5.53;;;1.70;;
19998;SDS011;10160;50.926;4.374;2022-10-16T04:15:16;4.00;;;1.70;;
19998;SDS011;10160;50.926;4.374;2022-10-16T04:17:42;6.07;;;2.10;;
19998;SDS011;10160;50.926;4.374;2022-10-16T04:20:07;4.73;;;2.20;;
19998;SDS011;10160;50.926;4.374;2022-10-16T04:22:33;7.77;;;1.90;;
19998;SDS011;10160;50.926;4.374;2022-10-16T04:24:59;7.23;;;1.90;;
19998;SDS011;10160;50.926;4.374;2022-10-16T04:27:25;6.23;;;2.00;;
19998;SDS011;10160;50.926;4.374;2022-10-16T04:29:50;7.90;;;2.27;;
19998;SDS011;10160;50.926;4.374;2022-10-16T04:32:16;8.10;;;2.33;;
19998;SDS011;10160;50.926;4.374;2022-10-16T04:34:42;7.47;;;1.83;;
19998;SDS011;10160;50.926;4.374;2022-10-16T04:37:07;5.90;;;1.90;;
19998;SDS011;10160;50.926;4.374;2022-10-16T04:39:33;5.37;;;2.10;;
19998;SDS011;10160;50.926;4.374;2022-10-16T04:41:59;6.10;;;2.07;;
19998;SDS011;10160;50.926;4.374;2022-10-16T04:44:24;6.00;;;1.77;;
19998;SDS011;10160;50.926;4.374;2022-10-16T04:46:50;4.57;;;1.93;;
19998;SDS011;10160;50.926;4.374;2022-10-16T04:49:16;7.67;;;1.90;;
19998;SDS011;10160;50.926;4.374;2022-10-16T04:51:42;5.10;;;1.57;;
19998;SDS011;10160;50.926;4.374;2022-10-16T04:54:08;6.17;;;2.20;;
19998;SDS011;10160;50.926;4.374;2022-10-16T04:56:34;7.33;;;2.17;;
19998;SDS011;10160;50.926;4.374;2022-10-16T04:59:07;7.57;;;1.90;;
19998;SDS011;10160;50.926;4.374;2022-10-16T05:01:33;7.47;;;2.03;;
19998;SDS011;10160;50.926;4.374;2022-10-16T05:03:59;6.27;;;1.90;;
19998;SDS011;10160;50.926;4.374;2022-10-16T05:06:24;4.13;;;1.80;;
19998;SDS011;10160;50.926;4.374;2022-10-16T05:08:50;6.03;;;2.33;;
19998;SDS011;10160;50.926;4.374;2022-10-16T05:11:15;6.83;;;1.70;;
19998;SDS011;10160;50.926;4.374;2022-10-16T05:13:41;7.90;;;1.70;;
19998;SDS011;10160;50.926;4.374;2022-10-16T05:16:07;5.93;;;1.90;;
19998;SDS011;10160;50.926;4.374;2022-10-16T05:18:32;4.53;;;1.73;;
19998;SDS011;10160;50.926;4.374;2022-10-16T05:20:58;6.20;;;2.17;;
19998;SDS011;10160;50.926;4.374;2022-10-16T05:23:23;7.83;;;1.73;;
19998;SDS011;10160;50.926;4.374;2022-10-16T05:25:56;7.93;;;1.83;;
19998;SDS011;10160;50.926;4.374;2022-10-16T05:28:23;4.20;;;1.83;;
19998;SDS011;10160;50.926;4.374;2022-10-16T05:30:49;7.40;;;1.93;;
19998;SDS011;10160;50.926;4.374;2022-10-16T05:33:15;8.57;;;2.17;;
19998;SDS011;10160;50.926;4.374;2022-10-16T05:35:41;5.30;;;2.17;;
19998;SDS011;10160;50.926;4.374;2022-10-16T05:38:07;6.17;;;1.97;;
19998;SDS011;10160;50.926;4.374;2022-10-16T05:40:33;5.13;;;2.03;;
19998;SDS011;10160;50.926;4.374;2022-10-16T05:42:58;8.77;;;2.27;;
19998;SDS011;10160;50.926;4.374;2022-10-16T05:45:24;5.70;;;2.23;;
19998;SDS011;10160;50.926;4.374;2022-10-16T05:47:50;8.03;;;2.37;;
19998;SDS011;10160;50.926;4.374;2022-10-16T05:50:16;7.33;;;1.93;;
19998;SDS011;10160;50.926;4.374;2022-10-16T05:52:42;9.23;;;2.27;;
19998;SDS011;10160;50.926;4.374;2022-10-16T05:55:07;6.10;;;2.43;;
19998;SDS011;10160;50.926;4.374;2022-10-16T05:57:33;5.53;;;2.43;;
19998;SDS011;10160;50.926;4.374;2022-10-16T05:59:59;9.97;;;2.40;;
19998;SDS011;10160;50.926;4.374;2022-10-16T06:02:24;7.10;;;2.50;;
19998;SDS011;10160;50.926;4.374;2022-10-16T06:04:53;5.70;;;2.20;;
19998;SDS011;10160;50.926;4.374;2022-10-16T06:07:19;7.27;;;2.53;;
19998;SDS011;10160;50.926;4.374;2022-10-16T06:09:47;7.53;;;2.13;;
19998;SDS011;10160;50.926;4.374;2022-10-16T06:12:17;9.87;;;2.93;;
19998;SDS011;10160;50.926;4.374;2022-10-16T06:14:44;7.30;;;2.03;;
19998;SDS011;10160;50.926;4.374;2022-10-16T06:17:11;9.17;;;2.70;;
19998;SDS011;10160;50.926;4.374;2022-10-16T06:19:38;4.37;;;1.93;;
19998;SDS011;10160;50.926;4.374;2022-10-16T06:22:04;6.87;;;2.30;;
19998;SDS011;10160;50.926;4.374;2022-10-16T06:24:29;7.70;;;2.20;;
19998;SDS011;10160;50.926;4.374;2022-10-16T06:26:55;6.53;;;2.23;;
19998;SDS011;10160;50.926;4.374;2022-10-16T06:29:21;4.80;;;1.83;;
19998;SDS011;10160;50.926;4.374;2022-10-16T06:31:46;4.93;;;2.50;;
19998;SDS011;10160;50.926;4.374;2022-10-16T06:34:12;4.07;;;2.10;;
19998;SDS011;10160;50.926;4.374;2022-10-16T06:36:38;8.17;;;2.63;;
19998;SDS011;10160;50.926;4.374;2022-10-16T06:39:04;8.57;;;2.67;;
19998;SDS011;10160;50.926;4.374;2022-10-16T06:41:31;4.20;;;1.97;;
19998;SDS011;10160;50.926;4.374;2022-10-16T06:43:57;6.37;;;2.50;;
19998;SDS011;10160;50.926;4.374;2022-10-16T06:46:24;8.83;;;2.47;;
19998;SDS011;10160;50.926;4.374;2022-10-16T06:48:50;5.20;;;1.93;;
19998;SDS011;10160;50.926;4.374;2022-10-16T06:51:17;8.67;;;2.63;;
19998;SDS011;10160;50.926;4.374;2022-10-16T06:54:03;5.47;;;2.13;;
19998;SDS011;10160;50.926;4.374;2022-10-16T06:56:28;9.50;;;2.50;;
19998;SDS011;10160;50.926;4.374;2022-10-16T06:58:55;9.73;;;2.47;;
19998;SDS011;10160;50.926;4.374;2022-10-16T07:01:22;8.07;;;2.27;;
19998;SDS011;10160;50.926;4.374;2022-10-16T07:03:49;6.30;;;2.13;;
19998;SDS011;10160;50.926;4.374;2022-10-16T07:06:17;5.53;;;2.50;;
19998;SDS011;10160;50.926;4.374;2022-10-16T07:08:45;13.00;;;2.90;;
19998;SDS011;10160;50.926;4.374;2022-10-16T07:11:13;5.20;;;2.37;;
19998;SDS011;10160;50.926;4.374;2022-10-16T07:13:43;7.20;;;2.23;;
19998;SDS011;10160;50.926;4.374;2022-10-16T07:16:17;7.60;;;2.30;;
19998;SDS011;10160;50.926;4.374;2022-10-16T07:18:44;4.60;;;1.80;;
19998;SDS011;10160;50.926;4.374;2022-10-16T07:21:20;5.17;;;2.20;;
19998;SDS011;10160;50.926;4.374;2022-10-16T07:23:51;4.53;;;1.77;;
19998;SDS011;10160;50.926;4.374;2022-10-16T07:26:17;9.77;;;2.23;;
19998;SDS011;10160;50.926;4.374;2022-10-16T07:28:43;7.10;;;2.33;;
19998;SDS011;10160;50.926;4.374;2022-10-16T07:31:10;7.93;;;2.07;;
19998;SDS011;10160;50.926;4.374;2022-10-16T07:33:38;7.83;;;2.10;;
19998;SDS011;10160;50.926;4.374;2022-10-16T07:36:05;5.00;;;2.10;;
19998;SDS011;10160;50.926;4.374;2022-10-16T07:38:31;6.53;;;2.40;;
19998;SDS011;10160;50.926;4.374;2022-10-16T07:41:00;5.33;;;2.17;;
19998;SDS011;10160;50.926;4.374;2022-10-16T07:43:31;6.47;;;2.37;;
19998;SDS011;10160;50.926;4.374;2022-10-16T07:45:57;7.63;;;2.50;;
19998;SDS011;10160;50.926;4.374;2022-10-16T07:48:23;6.37;;;1.93;;
19998;SDS011;10160;50.926;4.374;2022-10-16T07:50:52;7.40;;;2.10;;
19998;SDS011;10160;50.926;4.374;2022-10-16T07:53:17;6.33;;;2.17;;
19998;SDS011;10160;50.926;4.374;2022-10-16T07:55:43;5.60;;;2.00;;
19998;SDS011;10160;50.926;4.374;2022-10-16T07:58:09;10.00;;;2.20;;
19998;SDS011;10160;50.926;4.374;2022-10-16T08:00:35;5.83;;;2.10;;
19998;SDS011;10160;50.926;4.374;2022-10-16T08:03:02;3.60;;;1.77;;
19998;SDS011;10160;50.926;4.374;2022-10-16T08:05:28;5.60;;;2.10;;
19998;SDS011;10160;50.926;4.374;2022-10-16T08:07:56;5.83;;;1.90;;
19998;SDS011;10160;50.926;4.374;2022-10-16T08:10:23;5.87;;;1.90;;
19998;SDS011;10160;50.926;4.374;2022-10-16T08:12:50;8.27;;;2.07;;
19998;SDS011;10160;50.926;4.374;2022-10-16T08:15:17;6.00;;;1.83;;
19998;SDS011;10160;50.926;4.374;2022-10-16T08:17:43;5.30;;;1.80;;
19998;SDS011;10160;50.926;4.374;2022-10-16T08:20:09;7.00;;;2.10;;
19998;SDS011;10160;50.926;4.374;2022-10-16T08:22:35;6.13;;;1.87;;
19998;SDS011;10160;50.926;4.374;2022-10-16T08:25:01;5.47;;;1.70;;
19998;SDS011;10160;50.926;4.374;2022-10-16T08:27:31;8.10;;;1.73;;
19998;SDS011;10160;50.926;4.374;2022-10-16T08:29:57;7.30;;;1.80;;
19998;SDS011;10160;50.926;4.374;2022-10-16T08:32:23;6.57;;;1.80;;
19998;SDS011;10160;50.926;4.374;2022-10-16T08:34:48;7.67;;;2.20;;
19998;SDS011;10160;50.926;4.374;2022-10-16T08:37:14;10.23;;;2.13;;
19998;SDS011;10160;50.926;4.374;2022-10-16T08:39:40;6.77;;;2.00;;
19998;SDS011;10160;50.926;4.374;2022-10-16T08:50:25;5.93;;;1.50;;
19998;SDS011;10160;50.926;4.374;2022-10-16T08:52:53;7.73;;;2.30;;
19998;SDS011;10160;50.926;4.374;2022-10-16T08:57:53;8.40;;;1.80;;
19998;SDS011;10160;50.926;4.374;2022-10-16T09:00:19;5.70;;;1.63;;
19998;SDS011;10160;50.926;4.374;2022-10-16T09:02:49;6.10;;;1.63;;
19998;SDS011;10160;50.926;4.374;2022-10-16T09:13:43;4.60;;;1.27;;
19998;SDS011;10160;50.926;4.374;2022-10-16T09:16:28;6.18;;;1.70;;
19998;SDS011;10160;50.926;4.374;2022-10-16T09:19:12;10.23;;;1.80;;
19998;SDS011;10160;50.926;4.374;2022-10-16T09:21:49;8.43;;;1.50;;
19998;SDS011;10160;50.926;4.374;2022-10-16T09:24:20;6.00;;;1.65;;
19998;SDS011;10160;50.926;4.374;2022-10-16T09:26:49;6.03;;;1.27;;
19998;SDS011;10160;50.926;4.374;2022-10-16T09:29:19;6.13;;;1.57;;
19998;SDS011;10160;50.926;4.374;2022-10-16T09:31:46;9.30;;;1.85;;
19998;SDS011;10160;50.926;4.374;2022-10-16T09:36:53;8.07;;;1.60;;
19998;SDS011;10160;50.926;4.374;2022-10-16T09:39:19;7.22;;;1.30;;
19998;SDS011;10160;50.926;4.374;2022-10-16T09:41:45;9.05;;;1.85;;
19998;SDS011;10160;50.926;4.374;2022-10-16T09:44:29;6.85;;;1.70;;
19998;SDS011;10160;50.926;4.374;2022-10-16T09:47:12;4.90;;;0.95;;
19998;SDS011;10160;50.926;4.374;2022-10-16T09:49:38;7.25;;;1.30;;
19998;SDS011;10160;50.926;4.374;2022-10-16T09:52:04;7.25;;;1.38;;
19998;SDS011;10160;50.926;4.374;2022-10-16T09:54:35;5.82;;;1.33;;
19998;SDS011;10160;50.926;4.374;2022-10-16T09:57:05;6.13;;;1.23;;
19998;SDS011;10160;50.926;4.374;2022-10-16T09:59:32;8.23;;;1.23;;
19998;SDS011;10160;50.926;4.374;2022-10-16T10:02:01;4.90;;;1.17;;
19998;SDS011;10160;50.926;4.374;2022-10-16T10:04:37;7.85;;;1.40;;
19998;SDS011;10160;50.926;4.374;2022-10-16T10:07:06;4.95;;;1.17;;
19998;SDS011;10160;50.926;4.374;2022-10-16T10:09:43;7.28;;;1.23;;
19998;SDS011;10160;50.926;4.374;2022-10-16T10:12:20;2.88;;;1.00;;
19998;SDS011;10160;50.926;4.374;2022-10-16T10:14:50;5.13;;;1.15;;
19998;SDS011;10160;50.926;4.374;2022-10-16T10:17:19;5.43;;;1.25;;
19998;SDS011;10160;50.926;4.374;2022-10-16T10:22:44;6.25;;;1.08;;
19998;SDS011;10160;50.926;4.374;2022-10-16T10:27:43;5.70;;;0.98;;
19998;SDS011;10160;50.926;4.374;2022-10-16T10:46:23;8.18;;;1.40;;
19998;SDS011;10160;50.926;4.374;2022-10-16T10:49:03;9.77;;;0.98;;
19998;SDS011;10160;50.926;4.374;2022-10-16T10:51:56;4.28;;;0.85;;
19998;SDS011;10160;50.926;4.374;2022-10-16T11:03:02;5.72;;;0.80;;
19998;SDS011;10160;50.926;4.374;2022-10-16T11:06:02;5.93;;;0.90;;
19998;SDS011;10160;50.926;4.374;2022-10-16T11:08:35;3.72;;;0.90;;
19998;SDS011;10160;50.926;4.374;2022-10-16T11:11:18;4.57;;;0.93;;
19998;SDS011;10160;50.926;4.374;2022-10-16T11:16:38;5.90;;;0.90;;
19998;SDS011;10160;50.926;4.374;2022-10-16T11:28:03;5.78;;;0.93;;
19998;SDS011;10160;50.926;4.374;2022-10-16T11:30:47;6.13;;;0.70;;
19998;SDS011;10160;50.926;4.374;2022-10-16T11:41:35;9.45;;;2.33;;
19998;SDS011;10160;50.926;4.374;2022-10-16T11:49:34;3.20;;;0.73;;
19998;SDS011;10160;50.926;4.374;2022-10-16T11:52:13;3.53;;;1.00;;
19998;SDS011;10160;50.926;4.374;2022-10-16T11:57:59;5.68;;;1.15;;
19998;SDS011;10160;50.926;4.374;2022-10-16T12:08:59;7.93;;;1.67;;
19998;SDS011;10160;50.926;4.374;2022-10-16T12:16:51;9.73;;;1.10;;
19998;SDS011;10160;50.926;4.374;2022-10-16T12:19:21;4.53;;;1.02;;
19998;SDS011;10160;50.926;4.374;2022-10-16T12:21:48;4.55;;;1.00;;
19998;SDS011;10160;50.926;4.374;2022-10-16T12:27:18;6.47;;;1.00;;
19998;SDS011;10160;50.926;4.374;2022-10-16T12:29:48;2.80;;;0.82;;
19998;SDS011;10160;50.926;4.374;2022-10-16T12:34:56;5.85;;;1.08;;
19998;SDS011;10160;50.926;4.374;2022-10-16T12:38:03;4.95;;;1.08;;
19998;SDS011;10160;50.926;4.374;2022-10-16T12:40:31;4.38;;;1.00;;
19998;SDS011;10160;50.926;4.374;2022-10-16T12:42:59;7.28;;;1.20;;
19998;SDS011;10160;50.926;4.374;2022-10-16T12:45:35;9.45;;;1.40;;
19998;SDS011;10160;50.926;4.374;2022-10-16T12:48:01;7.72;;;1.08;;
19998;SDS011;10160;50.926;4.374;2022-10-16T12:50:37;5.60;;;1.50;;
19998;SDS011;10160;50.926;4.374;2022-10-16T12:53:16;5.05;;;0.98;;
19998;SDS011;10160;50.926;4.374;2022-10-16T12:56:10;4.30;;;1.10;;
19998;SDS011;10160;50.926;4.374;2022-10-16T13:01:08;6.15;;;1.00;;
19998;SDS011;10160;50.926;4.374;2022-10-16T13:11:35;14.70;;;1.45;;
19998;SDS011;10160;50.926;4.374;2022-10-16T13:27:17;6.28;;;1.10;;
19998;SDS011;10160;50.926;4.374;2022-10-16T13:30:02;4.78;;;1.10;;
19998;SDS011;10160;50.926;4.374;2022-10-16T13:33:16;4.28;;;1.33;;
19998;SDS011;10160;50.926;4.374;2022-10-16T13:35:53;5.63;;;1.45;;
19998;SDS011;10160;50.926;4.374;2022-10-16T13:38:24;4.75;;;0.75;;
19998;SDS011;10160;50.926;4.374;2022-10-16T13:40:55;4.32;;;0.88;;
19998;SDS011;10160;50.926;4.374;2022-10-16T13:43:39;6.20;;;0.90;;
19998;SDS011;10160;50.926;4.374;2022-10-16T13:46:12;6.68;;;1.27;;
19998;SDS011;10160;50.926;4.374;2022-10-16T13:48:40;4.18;;;0.80;;
19998;SDS011;10160;50.926;4.374;2022-10-16T13:51:11;9.30;;;1.52;;
19998;SDS011;10160;50.926;4.374;2022-10-16T13:53:37;4.57;;;0.55;;
19998;SDS011;10160;50.926;4.374;2022-10-16T13:56:04;5.78;;;0.88;;
19998;SDS011;10160;50.926;4.374;2022-10-16T13:58:33;3.15;;;0.80;;
19998;SDS011;10160;50.926;4.374;2022-10-16T14:00:59;4.97;;;0.88;;
19998;SDS011;10160;50.926;4.374;2022-10-16T14:03:30;5.60;;;1.20;;
19998;SDS011;10160;50.926;4.374;2022-10-16T14:05:59;5.80;;;0.95;;
19998;SDS011;10160;50.926;4.374;2022-10-16T14:08:27;4.90;;;0.90;;
19998;SDS011;10160;50.926;4.374;2022-10-16T14:10:56;6.72;;;1.08;;
19998;SDS011;10160;50.926;4.374;2022-10-16T14:13:29;6.85;;;0.80;;
19998;SDS011;10160;50.926;4.374;2022-10-16T14:16:00;4.57;;;0.90;;
19998;SDS011;10160;50.926;4.374;2022-10-16T14:18:44;6.78;;;1.00;;
19998;SDS011;10160;50.926;4.374;2022-10-16T14:21:12;7.22;;;1.10;;
19998;SDS011;10160;50.926;4.374;2022-10-16T14:23:40;6.95;;;0.90;;
19998;SDS011;10160;50.926;4.374;2022-10-16T14:28:38;4.55;;;1.05;;
19998;SDS011;10160;50.926;4.374;2022-10-16T14:33:54;2.60;;;0.60;;
19998;SDS011;10160;50.926;4.374;2022-10-16T14:36:20;6.55;;;0.93;;
19998;SDS011;10160;50.926;4.374;2022-10-16T14:38:57;4.95;;;0.88;;
19998;SDS011;10160;50.926;4.374;2022-10-16T14:41:43;4.40;;;0.98;;
19998;SDS011;10160;50.926;4.374;2022-10-16T14:44:11;4.43;;;0.82;;
19998;SDS011;10160;50.926;4.374;2022-10-16T14:46:39;3.80;;;0.68;;
19998;SDS011;10160;50.926;4.374;2022-10-16T14:51:36;7.60;;;0.98;;
19998;SDS011;10160;50.926;4.374;2022-10-16T14:54:02;7.72;;;1.10;;
19998;SDS011;10160;50.926;4.374;2022-10-16T14:56:41;4.53;;;0.98;;
19998;SDS011;10160;50.926;4.374;2022-10-16T14:59:16;4.57;;;1.10;;
19998;SDS011;10160;50.926;4.374;2022-10-16T15:02:13;4.40;;;1.13;;
19998;SDS011;10160;50.926;4.374;2022-10-16T15:04:41;7.55;;;1.35;;
19998;SDS011;10160;50.926;4.374;2022-10-16T15:07:07;5.18;;;1.17;;
19998;SDS011;10160;50.926;4.374;2022-10-16T15:09:33;3.40;;;1.00;;
19998;SDS011;10160;50.926;4.374;2022-10-16T15:11:58;6.55;;;1.10;;
19998;SDS011;10160;50.926;4.374;2022-10-16T15:14:24;4.40;;;1.38;;
19998;SDS011;10160;50.926;4.374;2022-10-16T15:16:50;6.40;;;1.50;;
19998;SDS011;10160;50.926;4.374;2022-10-16T15:19:15;7.70;;;1.55;;
19998;SDS011;10160;50.926;4.374;2022-10-16T15:21:41;11.23;;;1.95;;
19998;SDS011;10160;50.926;4.374;2022-10-16T15:24:08;10.40;;;1.65;;
19998;SDS011;10160;50.926;4.374;2022-10-16T15:26:37;9.05;;;1.48;;
19998;SDS011;10160;50.926;4.374;2022-10-16T15:29:04;7.57;;;1.98;;
19998;SDS011;10160;50.926;4.374;2022-10-16T15:31:29;15.68;;;2.28;;
19998;SDS011;10160;50.926;4.374;2022-10-16T15:33:56;10.63;;;1.75;;
19998;SDS011;10160;50.926;4.374;2022-10-16T15:36:30;11.07;;;2.20;;
19998;SDS011;10160;50.926;4.374;2022-10-16T15:39:19;8.88;;;2.10;;
19998;SDS011;10160;50.926;4.374;2022-10-16T15:41:46;9.93;;;2.10;;
19998;SDS011;10160;50.926;4.374;2022-10-16T15:44:19;9.05;;;2.03;;
19998;SDS011;10160;50.926;4.374;2022-10-16T15:46:47;10.40;;;1.50;;
19998;SDS011;10160;50.926;4.374;2022-10-16T15:49:13;8.55;;;1.95;;
19998;SDS011;10160;50.926;4.374;2022-10-16T15:51:40;4.57;;;1.30;;
19998;SDS011;10160;50.926;4.374;2022-10-16T15:54:07;7.57;;;1.60;;
19998;SDS011;10160;50.926;4.374;2022-10-16T15:56:33;11.35;;;1.90;;
19998;SDS011;10160;50.926;4.374;2022-10-16T15:59:02;5.55;;;1.40;;
19998;SDS011;10160;50.926;4.374;2022-10-16T16:01:31;8.30;;;1.40;;
19998;SDS011;10160;50.926;4.374;2022-10-16T16:03:58;14.65;;;2.15;;
19998;SDS011;10160;50.926;4.374;2022-10-16T16:06:23;9.13;;;1.90;;
19998;SDS011;10160;50.926;4.374;2022-10-16T16:08:49;7.40;;;1.58;;
19998;SDS011;10160;50.926;4.374;2022-10-16T16:11:18;4.43;;;1.20;;
19998;SDS011;10160;50.926;4.374;2022-10-16T16:13:44;8.60;;;1.70;;
19998;SDS011;10160;50.926;4.374;2022-10-16T16:16:13;5.28;;;1.40;;
19998;SDS011;10160;50.926;4.374;2022-10-16T16:18:41;5.85;;;1.45;;
19998;SDS011;10160;50.926;4.374;2022-10-16T16:21:08;7.80;;;1.92;;
19998;SDS011;10160;50.926;4.374;2022-10-16T16:23:35;4.13;;;1.40;;
19998;SDS011;10160;50.926;4.374;2022-10-16T16:26:05;4.80;;;1.77;;
19998;SDS011;10160;50.926;4.374;2022-10-16T16:28:31;7.28;;;1.42;;
19998;SDS011;10160;50.926;4.374;2022-10-16T16:30:57;7.38;;;1.67;;
19998;SDS011;10160;50.926;4.374;2022-10-16T16:33:22;8.18;;;1.67;;
19998;SDS011;10160;50.926;4.374;2022-10-16T16:35:49;9.18;;;2.03;;
19998;SDS011;10160;50.926;4.374;2022-10-16T16:38:14;11.50;;;1.73;;
19998;SDS011;10160;50.926;4.374;2022-10-16T16:40:40;9.00;;;2.10;;
19998;SDS011;10160;50.926;4.374;2022-10-16T16:43:06;8.20;;;1.80;;
19998;SDS011;10160;50.926;4.374;2022-10-16T16:45:35;7.03;;;1.42;;
19998;SDS011;10160;50.926;4.374;2022-10-16T16:48:00;3.92;;;1.45;;
19998;SDS011;10160;50.926;4.374;2022-10-16T16:50:26;4.20;;;1.55;;
19998;SDS011;10160;50.926;4.374;2022-10-16T16:52:52;6.75;;;1.48;;
19998;SDS011;10160;50.926;4.374;2022-10-16T16:55:18;8.32;;;1.92;;
19998;SDS011;10160;50.926;4.374;2022-10-16T16:57:44;7.15;;;1.80;;
19998;SDS011;10160;50.926;4.374;2022-10-16T17:00:13;4.70;;;1.55;;
19998;SDS011;10160;50.926;4.374;2022-10-16T17:02:39;7.95;;;2.97;;
19998;SDS011;10160;50.926;4.374;2022-10-16T17:05:08;11.30;;;2.85;;
19998;SDS011;10160;50.926;4.374;2022-10-16T17:07:34;9.07;;;3.60;;
19998;SDS011;10160;50.926;4.374;2022-10-16T17:10:00;6.78;;;2.80;;
19998;SDS011;10160;50.926;4.374;2022-10-16T17:12:28;7.93;;;2.75;;
19998;SDS011;10160;50.926;4.374;2022-10-16T17:14:54;9.52;;;2.70;;
19998;SDS011;10160;50.926;4.374;2022-10-16T17:17:20;7.15;;;2.97;;
19998;SDS011;10160;50.926;4.374;2022-10-16T17:19:45;7.40;;;2.35;;
19998;SDS011;10160;50.926;4.374;2022-10-16T17:22:11;7.57;;;2.00;;